Latest Weather Observations for Tuggeranong

IDN60901

Issued at 6:21 pm EDT Monday 2 March 2015 (issued every 10 minutes, with the page automatically refreshed every 10 minutes)

About weather observations | Map of Canberra area stations | Latest observations for Canberra area | Other Formats
Station Details ID: 070339 Name: TUGGERANONG (ISABELLA PLAINS) AWS Lat: -35.42 Lon: 149.09 Height: 586.7 m
Data from the previous 72 hours. | See also: Recent months at Tuggeranong
Date/Time
EDT
Tmp

°C
App
Tmp
°C
Dew
Point
°C
Rel
Hum
%
Delta-T

°C
Wind Press
QNH
hPa
Press
MSL
hPa
Rain
since
9 am
mm
Dir
 
Spd
km/h
Gust
km/h
Spd
kts
Gust
kts
02/05:30pm 24.6 21.6 10.5 41 8.0 ENE 17 30 9 16 1015.5 1013.5 0.0
02/05:00pm 25.3 23.9 9.6 37 8.8 NNE 7 13 4 7 1015.4 1013.4 0.0
02/04:30pm 24.8 21.8 9.1 37 8.7 NE 15 22 8 12 1015.8 1013.7 0.0
02/04:00pm 24.8 22.2 7.9 34 9.2 NNE 11 19 6 10 1016.0 1013.9 0.0
02/03:30pm 24.5 21.6 8.0 35 9.0 NE 13 39 7 21 1016.4 1014.3 0.0
02/03:00pm 23.8 21.0 8.6 38 8.3 N 13 19 7 10 1016.8 1014.8 0.0
02/02:30pm 23.7 21.3 8.5 38 8.3 ENE 11 20 6 11 1017.2 1015.2 0.0
02/02:00pm 22.2 20.1 8.3 41 7.5 SE 9 15 5 8 1017.7 1015.6 0.0
02/01:30pm 22.0 20.5 9.2 44 7.0 W 7 13 4 7 1018.2 1016.2 0.0
02/01:00pm 21.6 19.8 9.5 46 6.7 NNW 9 13 5 7 1018.5 1016.5 0.0
02/12:30pm 20.5 19.1 9.4 49 6.1 NNW 7 13 4 7 1019.3 1017.2 0.0
02/12:00pm 19.7 17.8 9.0 50 5.8 SW 9 13 5 7 1019.7 1017.7 0.0
02/11:30am 18.8 17.3 8.5 51 5.5 ENE 6 13 3 7 1020.0 1018.0 0.0
02/11:00am 18.1 16.0 8.1 52 5.3 ESE 9 13 5 7 1020.5 1018.5 0.0
02/10:30am 17.3 15.5 7.9 54 4.9 ENE 7 11 4 6 1020.8 1018.8 0.0
02/10:00am 15.8 13.6 6.3 53 4.8 SSW 7 13 4 7 1020.6 1018.6 0.0
02/09:30am 14.9 11.6 6.5 57 4.2 S 13 19 7 10 1020.8 1018.8 0.0
02/09:00am 13.4 9.6 5.6 59 3.8 S 15 22 8 12 1020.9 1018.9 0.8
02/08:30am 12.1 8.8 6.4 68 2.8 SSW 13 22 7 12 1021.1 1019.0 0.8
02/08:00am 10.8 7.6 6.7 76 2.0 S 13 22 7 12 1020.9 1018.9 0.8
02/07:30am 7.7 6.5 6.5 92 0.6 ENE 2 7 1 4 1020.8 1018.8 0.8
02/07:00am 6.7 5.7 5.7 93 0.5 CALM 0 6 0 3 1020.7 1018.7 0.8
02/06:30am 6.3 5.2 4.9 91 0.6 CALM 0 0 0 0 1020.4 1018.4 0.8
02/05:30am 7.5 6.5 5.6 88 0.9 CALM 0 0 0 0 1019.8 1017.8 0.8
02/05:00am 8.2 7.2 5.7 84 1.2 CALM 0 0 0 0 1019.5 1017.4 0.8
02/04:30am 8.5 7.1 5.6 82 1.4 ESE 2 7 1 4 1019.6 1017.5 0.8
02/04:00am 9.4 6.8 6.1 80 1.6 SE 9 11 5 6 1019.5 1017.4 0.8
02/03:30am 10.2 8.1 6.7 79 1.7 ESE 7 11 4 6 1019.5 1017.4 0.8
02/03:00am 10.0 7.5 6.7 80 1.6 SE 9 11 5 6 1018.9 1016.9 0.8
02/02:30am 10.4 8.0 6.9 79 1.7 SE 9 11 5 6 1019.1 1017.1 0.8
02/02:00am 10.9 8.9 7.2 78 1.8 SE 7 9 4 5 1019.1 1017.1 0.8
02/01:30am 11.4 9.4 7.1 75 2.1 SE 7 9 4 5 1019.1 1017.1 0.8
02/01:00am 12.5 10.8 7.4 71 2.6 ESE 6 7 3 4 1018.7 1016.7 0.8
02/12:30am 13.4 11.1 7.4 67 3.0 SE 9 11 5 6 1018.4 1016.4 0.8
 
Date/Time
EDT
Tmp

°C
App
Tmp
°C
Dew
Point
°C
Rel
Hum
%
Delta-T

°C
Wind Press
QNH
hPa
Press
MSL
hPa
Rain
since
9 am
mm
Dir
 
Spd
km/h
Gust
km/h
Spd
kts
Gust
kts
01/11:30pm 14.7 11.7 7.7 63 3.6 ESE 13 20 7 11 1017.9 1015.8 0.8
01/11:00pm 15.2 11.9 8.2 63 3.6 ESE 15 24 8 13 1017.9 1015.8 0.8
01/10:30pm 15.5 12.4 8.7 64 3.6 ESE 15 20 8 11 1017.3 1015.3 0.8
01/10:00pm 15.7 11.7 8.9 64 3.6 SSE 20 32 11 17 1017.2 1015.2 0.8
01/09:30pm 15.8 11.8 9.2 65 3.5 SE 20 39 11 21 1016.8 1014.8 0.8
01/09:00pm 15.9 11.9 9.1 64 3.6 SE 20 32 11 17 1016.4 1014.3 0.8
01/08:30pm 16.2 12.1 8.7 61 4.0 SE 20 35 11 19 1015.4 1013.4 0.8
01/08:00pm 16.4 12.9 8.6 60 4.1 SE 17 26 9 14 1014.7 1012.6 0.8
01/07:30pm 17.0 13.2 8.9 59 4.3 ESE 19 32 10 17 1014.1 1012.0 0.8
01/07:00pm 18.0 13.6 9.1 56 4.8 SE 22 32 12 17 1013.2 1011.1 0.8
01/06:30pm 19.1 14.7 10.4 57 4.8 SSE 24 41 13 22 1012.1 1009.9 0.8
01/06:09pm 19.7 14.5 10.1 54 5.3 SSE 28 46 15 25 1011.5 1009.4 0.8
01/06:00pm 20.7 16.9 11.1 54 5.4 SSE 22 41 12 22 1011.2 1009.1 0.8
01/05:30pm 21.9 18.5 12.5 55 5.5 S 22 39 12 21 1010.3 1008.1 0.8
01/05:00pm 23.4 19.5 12.1 49 6.6 S 24 33 13 18 1009.6 1007.5 0.8
01/04:30pm 27.7 22.8 5.3 24 11.9 W 20 33 11 18 1008.8 1006.6 0.8
01/04:00pm 27.5 25.1 11.5 37 9.4 WSW 15 22 8 12 1008.8 1006.6 0.8
01/03:30pm 26.5 23.6 12.9 43 8.1 W 20 35 11 19 1008.9 1006.7 0.8
01/03:00pm 25.5 22.2 14.0 49 7.0 W 24 37 13 20 1009.0 1006.8 0.8
01/02:30pm 23.4 24.4 17.8 71 3.6 W 9 15 5 8 1008.9 1006.7 0.8
01/02:00pm 25.1 22.6 13.6 49 6.9 WSW 19 28 10 15 1009.5 1007.4 0.0
01/01:30pm 26.3 23.8 12.4 42 8.2 WSW 17 26 9 14 1008.8 1006.6 0.0
01/01:00pm 27.0 24.5 12.3 40 8.7 WSW 17 24 9 13 1008.5 1006.3 0.0
01/12:30pm 28.1 26.5 12.8 38 9.2 W 13 20 7 11 1008.2 1006.1 0.0
01/12:00pm 27.1 25.4 12.3 39 8.8 NW 13 22 7 12 1008.2 1006.1 0.0
01/11:30am 25.8 24.3 13.0 45 7.6 NNW 13 22 7 12 1008.2 1006.1 0.0
01/11:00am 26.6 25.3 13.7 45 7.8 NW 13 20 7 11 1008.5 1006.3 0.0
01/10:30am 24.8 24.0 14.0 51 6.5 NNW 11 17 6 9 1008.2 1005.4 0.0
01/10:00am 22.9 22.8 15.0 61 4.8 W 9 13 5 7 1008.5 1005.6 0.0
01/09:30am 20.9 20.0 13.8 64 4.2 NE 11 17 6 9 1007.9 1005.1 0.0
01/09:00am 19.2 18.5 13.2 68 3.5 SW 9 13 5 7 1009.2 1006.3 0.0
01/08:30am 18.5 18.8 14.6 78 2.3 SSW 6 7 3 4 1008.4 1005.5 0.0
01/08:00am 17.3 18.2 14.0 81 1.9 NNE 2 7 1 4 1008.2 1005.4 0.0
01/07:30am 16.4 16.5 13.9 85 1.5 ESE 6 7 3 4 1008.2 1005.4 0.0
01/07:00am 15.0 15.4 13.7 92 0.8 E 4 7 2 4 1008.4 1005.5 0.0
01/06:30am 14.4 15.4 13.3 93 0.6 CALM 0 0 0 0 1007.7 1004.8 0.0
01/06:00am 14.3 14.1 13.0 92 0.7 W 6 13 3 7 1007.2 1004.3 0.0
01/05:30am 14.1 13.9 13.0 93 0.6 N 6 7 3 4 1006.9 1004.0 0.0
01/05:00am 13.7 14.0 12.3 91 0.8 SSW 2 9 1 5 1007.0 1004.1 0.0
01/04:30am 14.8 16.0 13.7 93 0.6 CALM 0 0 0 0 1006.9 1004.0 0.0
01/04:00am 14.6 14.9 13.3 92 0.7 ENE 4 9 2 5 1006.8 1003.9 0.0
01/03:30am 14.7 15.7 13.2 91 0.9 CALM 0 0 0 0 1007.0 1004.1 0.0
01/03:00am 14.2 14.9 12.2 88 1.1 CALM 0 0 0 0 1007.4 1004.5 0.0
01/02:30am 15.0 15.8 12.7 86 1.3 CALM 0 0 0 0 1007.3 1004.4 0.0
01/02:00am 15.0 15.8 12.7 86 1.3 CALM 0 0 0 0 1007.7 1004.8 0.0
01/01:30am 15.9 17.0 13.4 85 1.4 CALM 0 0 0 0 1007.9 1005.1 0.0
01/01:00am 16.3 17.4 13.4 83 1.7 CALM 0 0 0 0 1008.4 1005.5 0.0
01/12:30am 16.5 17.4 13.0 80 2.0 CALM 0 0 0 0 1008.6 1005.7 0.0
01/12:00am 17.4 18.4 13.3 77 2.4 CALM 0 0 0 0 1008.6 1005.7 0.0
 
Date/Time
EDT
Tmp

°C
App
Tmp
°C
Dew
Point
°C
Rel
Hum
%
Delta-T

°C
Wind Press
QNH
hPa
Press
MSL
hPa
Rain
since
9 am
mm
Dir
 
Spd
km/h
Gust
km/h
Spd
kts
Gust
kts
28/11:30pm 18.3 19.4 13.6 74 2.7 CALM 0 0 0 0 1008.5 1005.6 0.0
28/11:00pm 18.8 19.9 13.6 72 3.1 CALM 0 0 0 0 1008.7 1005.8 0.0
28/10:30pm 19.2 20.0 12.7 66 3.8 CALM 0 0 0 0 1008.8 1005.9 0.0
28/10:00pm 20.5 21.5 13.2 63 4.3 CALM 0 0 0 0 1008.8 1005.9 0.0
28/09:30pm 21.5 21.1 12.4 56 5.3 SE 6 7 3 4 1008.7 1005.8 0.0
28/09:00pm 23.1 22.5 12.4 51 6.3 E 7 9 4 5 1008.7 1005.8 0.0
28/08:30pm 23.5 22.8 13.1 52 6.2 E 9 11 5 6 1008.5 1005.6 0.0
28/08:00pm 24.7 25.4 12.3 46 7.3 CALM 0 0 0 0 1008.2 1005.4 0.0
28/07:30pm 28.2 27.2 10.4 33 10.3 NW 6 9 3 5 1007.8 1005.0 0.0
28/07:00pm 29.1 27.4 9.8 30 11.1 NNW 9 13 5 7 1007.6 1004.7 0.0
28/06:30pm 29.7 27.7 10.3 30 11.3 NW 11 17 6 9 1007.6 1004.7 0.0
28/06:00pm 29.7 28.1 11.7 33 10.7 NW 11 17 6 9 1007.6 1004.7 0.0
28/05:30pm 30.3 27.9 11.3 31 11.3 NW 15 24 8 13 1007.5 1004.6 0.0
28/05:00pm 30.1 27.1 10.6 30 11.4 NNW 17 26 9 14 1007.8 1005.0 0.0
28/04:30pm 29.9 27.4 10.9 31 11.2 NNW 15 24 8 13 1008.1 1005.3 0.0
28/04:00pm 30.3 28.8 11.8 32 11.1 NW 11 24 6 13 1008.4 1005.5 0.0
28/03:30pm 30.3 28.3 12.7 34 10.7 NNW 15 30 8 16 1008.6 1005.7 0.0
28/03:00pm 29.1 26.5 12.1 35 10.2 NNW 17 26 9 14 1008.9 1006.0 0.0
28/02:30pm 28.7 26.7 12.6 37 9.7 NW 15 26 8 14 1009.3 1006.5 0.0
28/02:00pm 28.5 26.9 12.8 38 9.5 NW 13 20 7 11 1009.8 1007.0 0.0
28/01:30pm 27.1 26.7 16.1 51 6.9 N 13 19 7 10 1010.4 1007.5 0.0
28/01:00pm 26.3 26.7 16.3 54 6.3 NW 9 17 5 9 1010.8 1007.9 0.0
28/12:30pm 24.8 25.3 16.5 60 5.2 NNW 9 15 5 8 1011.4 1008.6 0.0
28/12:00pm 23.7 24.2 16.5 64 4.5 NNE 9 17 5 9 1011.7 1008.9 0.0
28/11:30am 21.8 22.3 16.5 72 3.3 NE 9 13 5 7 1012.2 1009.3 0.0
28/11:00am 21.0 22.3 16.2 74 3.0 NE 4 9 2 5 1012.5 1009.7 0.0
28/10:30am 20.2 20.5 16.0 77 2.6 WNW 9 13 5 7 1012.7 1009.9 0.0
28/10:00am 19.7 21.8 16.2 80 2.2 CALM 0 0 0 0 1012.2 1009.3 0.0
28/09:30am 18.6 20.4 15.5 82 1.9 CALM 0 0 0 0 1012.3 1009.4 0.0
28/09:00am 18.2 18.7 15.1 82 1.9 W 6 7 3 4 1012.6 1009.8 0.0
28/08:30am 17.4 18.3 15.2 87 1.3 SSW 4 6 2 3 1012.4 1009.6 0.0
28/08:00am 16.4 18.1 15.1 92 0.8 CALM 0 0 0 0 1012.3 1009.4 0.0
28/07:30am 15.2 16.4 13.9 92 0.8 CALM 0 6 0 3 1012.1 1009.2 0.0
28/07:00am 15.2 16.4 13.9 92 0.8 CALM 0 0 0 0 1011.9 1009.1 0.0
28/06:30am 15.6 16.9 14.0 90 0.9 CALM 0 0 0 0 1011.5 1008.7 0.0
28/06:00am 16.0 17.3 14.0 88 1.2 CALM 0 0 0 0 1011.3 1008.5 0.0
28/05:30am 16.2 17.4 13.9 86 1.3 CALM 0 0 0 0 1011.1 1008.3 0.0
28/05:00am 16.3 17.6 14.1 87 1.3 CALM 0 0 0 0 1010.9 1008.1 0.0
28/04:30am 16.4 18.0 14.9 91 0.9 CALM 0 0 0 0 1010.8 1007.9 0.0
28/04:00am 16.8 18.6 15.5 92 0.8 CALM 0 0 0 0 1011.1 1008.3 0.0
28/03:30am 17.0 18.8 15.5 91 0.9 CALM 0 0 0 0 1011.3 1008.5 0.0
28/03:00am 17.8 18.6 15.8 88 1.2 SE 6 7 3 4 1011.3 1008.5 0.0
28/02:30am 18.0 18.7 16.0 88 1.2 ESE 7 9 4 5 1011.4 1008.6 0.0
28/02:00am 18.4 19.3 16.2 87 1.3 E 6 9 3 5 1011.6 1008.8 0.0
28/01:30am 18.6 19.6 16.4 87 1.4 E 6 7 3 4 1011.7 1008.9 0.0
28/01:00am 18.5 20.5 16.1 86 1.5 CALM 0 0 0 0 1012.1 1009.2 0.0
28/12:30am 18.6 20.6 16.0 85 1.6 CALM 0 0 0 0 1012.2 1009.3 0.0
28/12:00am 19.7 21.0 16.2 80 2.2 ENE 4 7 2 4 1011.9 1009.1 0.0
 
Date/Time
EDT
Tmp

°C
App
Tmp
°C
Dew
Point
°C
Rel
Hum
%
Delta-T

°C
Wind Press
QNH
hPa
Press
MSL
hPa
Rain
since
9 am
mm
Dir
 
Spd
km/h
Gust
km/h
Spd
kts
Gust
kts
27/11:30pm 20.0 21.6 16.0 78 2.5 E 2 9 1 5 1012.3 1009.4 0.0
27/11:00pm 20.5 20.5 16.3 77 2.6 ESE 11 19 6 10 1012.1 1009.2 0.0
27/10:30pm 20.9 20.5 16.1 74 3.0 E 13 20 7 11 1011.6 1008.8 0.0
27/10:00pm 21.3 20.8 15.8 71 3.4 E 13 19 7 10 1011.5 1008.7 0.0
27/09:30pm 21.7 20.3 14.6 64 4.3 ENE 15 20 8 11 1011.1 1008.3 0.0
27/09:00pm 19.9 19.4 11.9 60 4.6 E 6 9 3 5 1010.7 1007.8 0.0
27/08:30pm 20.5 20.8 10.9 54 5.4 CALM 0 0 0 0 1010.3 1007.4 0.0
27/08:00pm 22.5 21.8 8.6 41 7.6 N 2 6 1 3 1009.8 1007.0 0.0
27/07:30pm 25.8 24.3 8.3 33 9.7 NNW 6 7 3 4 1009.4 1006.6 0.0
27/07:00pm 26.9 25.2 8.4 31 10.3 N 7 11 4 6 1009.3 1006.5 0.0
27/06:30pm 27.3 24.7 7.7 29 10.8 NW 11 17 6 9 1009.1 1006.2 0.0

Latest Capital City Observations: Canberra | Sydney | Melbourne | Brisbane | Adelaide | Perth | Hobart | Darwin

Other Formats:

Comma delimited format used in spreadsheet applications
http://www.bom.gov.au/fwo/IDN60903/IDN60903.94925.axf

JavaScript Object Notation format (JSON) in row-major order
http://www.bom.gov.au/fwo/IDN60903/IDN60903.94925.json